createdAt,value
2022-09-15T00:01:58.034Z,99344.06
2022-09-15T00:04:32.603Z,99331.94
2022-09-15T00:07:08.225Z,99335.09
2022-09-15T00:09:42.894Z,99329.13
2022-09-15T00:12:17.853Z,99328.19
2022-09-15T00:14:52.446Z,99336.38
2022-09-15T00:17:27.400Z,99338.47
2022-09-15T00:20:02.561Z,99360.84
2022-09-15T00:22:38.165Z,99375.59
2022-09-15T00:25:14.126Z,99399.81
2022-09-15T00:27:48.626Z,99407.66
2022-09-15T00:30:23.197Z,99416.41
2022-09-15T00:32:57.703Z,99430.97
2022-09-15T00:35:32.441Z,99440.66
2022-09-15T00:38:09.474Z,99435.97
2022-09-15T00:40:48.907Z,99442.50
2022-09-15T00:43:43.054Z,99442.50
2022-09-15T00:46:25.280Z,99427.19
2022-09-15T00:49:03.170Z,99423.47
2022-09-15T00:51:42.807Z,99411.00
2022-09-15T00:54:23.184Z,99399.78
2022-09-15T00:57:01.649Z,99402.06
2022-09-15T00:59:40.231Z,99394.38
2022-09-15T01:02:20.035Z,99394.38
2022-09-15T01:04:58.535Z,99400.16
2022-09-15T01:07:37.807Z,99405.19
2022-09-15T01:10:17.189Z,99405.53
2022-09-15T01:12:51.950Z,99410.03
2022-09-15T01:15:45.885Z,99400.34
2022-09-15T01:18:30.280Z,99391.72
2022-09-15T01:21:19.064Z,99379.41
2022-09-15T01:24:41.794Z,99375.09
2022-09-15T01:27:49.286Z,99379.56
2022-09-15T01:30:26.015Z,99382.50
2022-09-15T01:33:14.286Z,99383.47
2022-09-15T01:36:04.787Z,99376.78
2022-09-15T01:38:51.466Z,99393.50
2022-09-15T01:41:31.616Z,99381.97
2022-09-15T01:44:10.555Z,99377.06
2022-09-15T01:46:49.305Z,99375.75
2022-09-15T01:49:26.973Z,99379.91
2022-09-15T01:52:02.149Z,99387.91
2022-09-15T03:50:10.176Z,99412.47
2022-09-15T03:52:45.307Z,99412.47
2022-09-15T03:55:19.775Z,99427.72
2022-09-15T03:57:54.295Z,99430.28
2022-09-15T04:00:29.055Z,99430.50
2022-09-15T04:03:03.856Z,99433.28
2022-09-15T04:05:39.924Z,99439.63
2022-09-15T04:08:14.724Z,99435.00
2022-09-15T04:10:49.364Z,99426.22
2022-09-15T04:13:28.436Z,99411.31
2022-09-15T04:16:08.189Z,99398.25
2022-09-15T04:18:43.235Z,99400.50
2022-09-15T04:21:20.709Z,99406.72
2022-09-15T04:23:55.719Z,99401.31
2022-09-15T04:26:33.387Z,99401.94
2022-09-15T04:29:14.212Z,99397.41
2022-09-15T04:31:48.884Z,99396.81
2022-09-15T04:34:24.562Z,99398.47
2022-09-15T04:37:02.629Z,99382.16
2022-09-15T04:39:37.654Z,99389.28
2022-09-15T04:42:12.065Z,99377.84
2022-09-15T04:44:47.159Z,99387.03
2022-09-15T04:47:21.465Z,99389.34
2022-09-15T04:49:56.452Z,99383.16
2022-09-15T04:52:32.312Z,99392.91
2022-09-15T04:55:07.310Z,99380.44
2022-09-15T04:57:41.830Z,99379.09
2022-09-15T05:00:17.278Z,99395.97
2022-09-15T05:02:51.787Z,99404.94
2022-09-15T05:05:27.308Z,99419.22
2022-09-15T05:08:03.634Z,99433.03
2022-09-15T05:10:39.261Z,99442.22
2022-09-15T05:13:13.482Z,99444.06
2022-09-15T05:15:48.394Z,99454.81
2022-09-15T05:18:22.904Z,99463.34
2022-09-15T05:21:01.949Z,99464.44
2022-09-15T05:23:38.516Z,99477.22
2022-09-15T05:26:17.635Z,99473.22
2022-09-15T05:28:51.985Z,99477.66
2022-09-15T05:31:33.278Z,99482.63
2022-09-15T05:34:08.096Z,99488.13
2022-09-15T05:36:46.198Z,99499.78
2022-09-15T05:39:22.985Z,99485.94
2022-09-15T05:42:00.881Z,99485.91
2022-09-15T05:44:35.297Z,99459.69
2022-09-15T05:47:10.544Z,99464.03
2022-09-15T05:49:45.142Z,99458.72
2022-09-15T05:52:19.733Z,99460.41
2022-09-15T05:55:00.898Z,99468.00
2022-09-15T05:57:35.477Z,99466.56
2022-09-15T06:00:14.483Z,99479.56
2022-09-15T06:02:49.933Z,99468.75
2022-09-15T06:05:24.471Z,99473.78
2022-09-15T06:07:59.361Z,99473.69
2022-09-15T06:10:39.413Z,99488.22
2022-09-15T06:13:16.077Z,99498.28
2022-09-15T06:15:50.388Z,99503.47
2022-09-15T06:18:25.200Z,99514.59
2022-09-15T06:20:59.406Z,99498.22
2022-09-15T06:23:34.102Z,99495.09
2022-09-15T06:26:12.480Z,99513.22
2022-09-15T06:28:50.045Z,99500.78
2022-09-15T06:31:25.993Z,99490.34
2022-09-15T06:34:01.326Z,99489.78
2022-09-15T06:36:38.175Z,99484.84
2022-09-15T06:39:13.582Z,99486.47
2022-09-15T06:42:05.926Z,99489.91
2022-09-15T06:44:41.883Z,99493.19
2022-09-15T06:47:16.640Z,99491.75
2022-09-15T06:49:53.192Z,99489.56
2022-09-15T06:52:27.765Z,99486.00
2022-09-15T06:55:02.614Z,99492.16
2022-09-15T06:57:38.373Z,99482.72
2022-09-15T07:00:14.151Z,99487.47
2022-09-15T07:02:50.440Z,99495.91
2022-09-15T07:05:25.655Z,99498.09
2022-09-15T07:08:00.118Z,99489.69
2022-09-15T07:10:34.935Z,99491.56
2022-09-15T07:13:10.838Z,99491.94
2022-09-15T07:15:52.382Z,99496.41
2022-09-15T07:18:27.863Z,99490.47
2022-09-15T07:21:04.434Z,99501.31
2022-09-15T07:23:38.822Z,99510.78
2022-09-15T07:26:15.504Z,99523.47
2022-09-15T07:28:52.636Z,99511.53
2022-09-15T07:31:29.366Z,99521.78
2022-09-15T07:34:04.497Z,99535.37
2022-09-15T07:36:39.079Z,99535.75
2022-09-15T07:39:13.467Z,99529.84
2022-09-15T07:41:48.205Z,99540.31
2022-09-15T07:44:24.032Z,99536.59
2022-09-15T07:46:59.133Z,99543.59
2022-09-15T07:49:33.425Z,99538.94
2022-09-15T07:52:08.049Z,99538.78
2022-09-15T07:54:42.418Z,99540.12
2022-09-15T07:57:16.934Z,99540.12
2022-09-15T07:59:52.895Z,99530.59
2022-09-15T08:02:27.725Z,99535.25
2022-09-15T08:05:02.444Z,99536.41
2022-09-15T08:07:36.715Z,99525.19
2022-09-15T08:10:11.628Z,99534.91
2022-09-15T08:12:45.978Z,99543.28
2022-09-15T08:15:22.479Z,99546.47
2022-09-15T08:17:56.888Z,99550.63
2022-09-15T08:20:32.267Z,99547.59
2022-09-15T08:23:06.911Z,99528.34
2022-09-15T08:25:41.688Z,99532.06
2022-09-15T08:28:15.987Z,99520.63
2022-09-15T08:30:59.933Z,99524.31
2022-09-15T08:33:35.489Z,99519.16
2022-09-15T08:36:11.993Z,99514.16
2022-09-15T08:38:47.719Z,99507.91
2022-09-15T08:41:28.794Z,99505.09
2022-09-15T08:44:12.279Z,99503.44
2022-09-15T08:46:52.464Z,99499.94
2022-09-15T08:49:49.937Z,99484.09
2022-09-15T08:52:29.759Z,99480.00
2022-09-15T08:55:08.280Z,99479.66
2022-09-15T08:57:43.036Z,99480.22
2022-09-15T09:00:19.157Z,99477.28
2022-09-15T09:03:29.036Z,99474.09
2022-09-15T09:06:14.653Z,99471.84
2022-09-15T09:09:03.784Z,99469.56
2022-09-15T09:11:53.472Z,99475.94
2022-09-15T09:14:32.403Z,99476.16
2022-09-15T09:17:26.590Z,99470.34
2022-09-15T09:20:25.976Z,99467.37
2022-09-15T09:23:02.933Z,99467.06
2022-09-15T09:25:38.753Z,99467.25
2022-09-15T09:28:25.333Z,99469.31
2022-09-15T09:31:06.645Z,99461.47
2022-09-15T09:33:47.984Z,99464.44
2022-09-15T09:36:24.294Z,99466.09
2022-09-15T09:38:59.153Z,99464.69
2022-09-15T09:41:36.883Z,99443.34
2022-09-15T09:44:15.268Z,99446.09
2022-09-15T09:46:50.474Z,99443.53
2022-09-15T09:49:25.595Z,99442.41
2022-09-15T09:52:04.790Z,99443.66
2022-09-15T09:54:39.876Z,99446.00
2022-09-15T09:57:29.404Z,99431.59
2022-09-15T10:00:04.922Z,99412.38
2022-09-15T10:02:48.469Z,99405.94
2022-09-15T10:05:23.811Z,99390.34
2022-09-15T10:08:03.963Z,99388.44
2022-09-15T10:10:38.487Z,99381.34
2022-09-15T10:13:13.093Z,99384.31
2022-09-15T10:15:54.658Z,99380.59
2022-09-15T10:18:33.023Z,99372.25
2022-09-15T10:21:11.158Z,99372.69
2022-09-15T10:23:46.912Z,99363.91
2022-09-15T10:26:32.161Z,99365.94
2022-09-15T10:29:15.411Z,99376.03
2022-09-15T10:31:50.563Z,99363.28
2022-09-15T10:34:27.867Z,99368.37
2022-09-15T10:37:26.856Z,99376.50
2022-09-15T10:40:19.705Z,99365.25
2022-09-15T10:43:00.485Z,99369.66
2022-09-15T10:45:39.418Z,99371.00
2022-09-15T10:48:32.786Z,99380.72
2022-09-15T10:51:17.796Z,99382.06
2022-09-15T10:54:13.909Z,99371.25
2022-09-15T10:56:53.422Z,99362.63
2022-09-15T10:59:39.728Z,99375.91
2022-09-15T11:02:33.940Z,99373.84
2022-09-15T11:05:24.224Z,99372.78
2022-09-15T11:08:22.895Z,99368.72
2022-09-15T11:11:05.368Z,99360.56
2022-09-15T11:13:56.087Z,99352.75
2022-09-15T11:16:49.143Z,99341.91
2022-09-15T11:19:37.020Z,99331.31
2022-09-15T11:22:15.725Z,99323.44
2022-09-15T11:24:52.775Z,99314.37
2022-09-15T11:27:31.054Z,99317.06
2022-09-15T11:30:17.218Z,99319.00
2022-09-15T11:32:59.911Z,99320.78
2022-09-15T11:35:43.088Z,99317.97
2022-09-15T11:38:40.571Z,99327.28
2022-09-15T11:41:31.042Z,99329.06
2022-09-15T11:44:17.234Z,99325.03
2022-09-15T11:47:17.707Z,99325.47
2022-09-15T11:49:57.150Z,99317.19
2022-09-15T11:52:44.085Z,99318.91
2022-09-15T11:55:26.009Z,99312.03
2022-09-15T11:58:16.381Z,99305.34
2022-09-15T12:00:56.961Z,99296.91
2022-09-15T12:03:38.969Z,99289.97
2022-09-15T12:06:19.687Z,99296.97
2022-09-15T12:09:00.903Z,99280.31
2022-09-15T12:11:37.968Z,99266.50
2022-09-15T12:14:17.154Z,99281.72
2022-09-15T12:16:52.077Z,99274.03
2022-09-15T12:19:42.669Z,99275.19
2022-09-15T12:22:24.835Z,99268.97
2022-09-15T12:25:04.491Z,99271.88
2022-09-15T12:27:39.351Z,99281.41
2022-09-15T12:30:43.969Z,99278.59
2022-09-15T12:33:45.563Z,99278.34
2022-09-15T12:36:43.010Z,99280.72
2022-09-15T12:39:24.382Z,99276.44
2022-09-15T12:42:09.548Z,99267.75
2022-09-15T12:44:47.786Z,99264.38
2022-09-15T12:47:28.514Z,99271.97
2022-09-15T12:50:10.357Z,99266.03
2022-09-15T12:52:50.636Z,99269.00
2022-09-15T12:55:28.010Z,99255.84
2022-09-15T12:58:09.103Z,99249.75
2022-09-15T13:01:13.859Z,99242.72
2022-09-15T13:04:24.810Z,99252.81
2022-09-15T13:07:34.877Z,99259.91
2022-09-15T13:10:40.155Z,99223.44
2022-09-15T13:13:24.193Z,99229.41
2022-09-15T13:15:59.359Z,99246.84
2022-09-15T13:18:35.177Z,99242.97
2022-09-15T13:21:15.730Z,99241.97
2022-09-15T13:23:54.167Z,99242.53
2022-09-15T13:26:31.785Z,99237.81
2022-09-15T13:29:07.584Z,99231.47
2022-09-15T13:31:49.699Z,99242.72
2022-09-15T13:35:10.948Z,99253.47
2022-09-15T13:38:23.022Z,99262.31
2022-09-15T13:41:20.920Z,99269.81
2022-09-15T13:44:35.439Z,99253.63
2022-09-15T13:47:23.671Z,99245.69
2022-09-15T13:50:12.378Z,99235.25
2022-09-15T13:53:14.396Z,99220.72
2022-09-15T13:55:49.206Z,99212.59
2022-09-15T14:01:24.201Z,99218.91
2022-09-15T14:04:01.052Z,99218.25
2022-09-15T14:06:38.295Z,99245.03
2022-09-15T14:09:17.544Z,99248.34
2022-09-15T14:11:54.279Z,99260.91
2022-09-15T14:14:37.550Z,99282.84
2022-09-15T14:17:22.602Z,99264.34
2022-09-15T14:19:59.182Z,99269.13
2022-09-15T14:22:34.884Z,99270.84
2022-09-15T14:25:16.690Z,99273.72
2022-09-15T14:27:52.881Z,99281.66
2022-09-15T14:30:32.403Z,99297.63
2022-09-15T14:33:07.921Z,99314.22
2022-09-15T14:35:42.511Z,99325.88
2022-09-15T14:38:24.771Z,99333.50
2022-09-15T14:41:01.736Z,99341.72
2022-09-15T14:43:39.301Z,99337.69
2022-09-15T14:46:15.311Z,99333.41
2022-09-15T14:48:50.815Z,99342.56
2022-09-15T14:51:28.653Z,99333.56
2022-09-15T14:54:04.790Z,99338.03
2022-09-15T14:56:43.690Z,99327.97
2022-09-15T14:59:22.895Z,99314.94
2022-09-15T15:02:06.719Z,99313.41
2022-09-15T15:04:46.394Z,99305.97
2022-09-15T15:07:26.084Z,99289.91
2022-09-15T15:10:03.713Z,99268.28
2022-09-15T15:12:42.765Z,99262.50
2022-09-15T15:15:18.036Z,99261.75
2022-09-15T15:17:54.864Z,99253.91
2022-09-15T15:20:31.642Z,99263.44
2022-09-15T15:23:16.645Z,99275.75
2022-09-15T15:25:51.325Z,99273.50
2022-09-15T15:28:34.049Z,99274.44
2022-09-15T15:31:15.691Z,99271.47
2022-09-15T15:33:53.217Z,99273.34
2022-09-15T15:36:31.089Z,99260.63
2022-09-15T15:39:07.620Z,99261.94
2022-09-15T15:41:43.328Z,99256.72
2022-09-15T15:44:28.190Z,99255.97
2022-09-15T15:47:03.956Z,99269.41
2022-09-15T15:49:46.303Z,99259.34
2022-09-15T15:52:31.606Z,99258.75
2022-09-15T15:55:07.081Z,99263.94
2022-09-15T15:57:41.807Z,99253.34
2022-09-15T16:00:23.086Z,99260.00
2022-09-15T16:02:57.918Z,99257.25
2022-09-15T16:05:32.972Z,99246.81
2022-09-15T16:08:13.570Z,99247.37
2022-09-15T16:10:52.117Z,99249.25
2022-09-15T16:13:26.890Z,99249.06
2022-09-15T16:16:01.882Z,99259.31
2022-09-15T16:18:36.220Z,99269.00
2022-09-15T16:21:17.388Z,99270.88
2022-09-15T16:23:53.546Z,99283.28
2022-09-15T16:26:27.851Z,99290.59
2022-09-15T16:29:02.668Z,99294.44
2022-09-15T16:31:37.543Z,99303.22
2022-09-15T16:34:17.723Z,99298.38
2022-09-15T16:36:51.789Z,99303.22
2022-09-15T16:39:27.505Z,99301.69
2022-09-15T16:42:01.659Z,99289.56
2022-09-15T16:44:37.208Z,99279.34
2022-09-15T16:47:11.260Z,99281.78
2022-09-15T16:49:45.584Z,99287.56
2022-09-15T16:52:21.813Z,99291.28
2022-09-15T16:54:57.865Z,99294.34
2022-09-15T16:57:32.225Z,99301.34
2022-09-15T17:00:07.736Z,99286.00
2022-09-15T17:02:41.980Z,99274.81
2022-09-15T17:05:19.779Z,99281.22
2022-09-15T17:07:54.197Z,99269.47
2022-09-15T17:10:30.269Z,99272.25
2022-09-15T17:13:04.809Z,99264.75
2022-09-15T17:15:40.977Z,99269.41
2022-09-15T17:18:16.546Z,99264.19
2022-09-15T17:20:51.849Z,99272.50
2022-09-15T17:23:28.686Z,99286.34
2022-09-15T17:26:07.295Z,99296.50
2022-09-15T17:28:42.319Z,99292.00
2022-09-15T17:31:18.824Z,99290.09
2022-09-15T17:33:53.499Z,99287.31
2022-09-15T17:36:27.900Z,99278.25
2022-09-15T17:39:02.022Z,99263.47
2022-09-15T17:41:38.744Z,99257.38
2022-09-15T17:44:12.838Z,99260.47
2022-09-15T17:46:47.316Z,99244.31
2022-09-15T17:49:22.238Z,99253.69
2022-09-15T17:51:56.704Z,99263.47
2022-09-15T17:54:31.351Z,99269.94
2022-09-15T17:57:07.368Z,99269.87
2022-09-15T17:59:41.686Z,99282.13
2022-09-15T18:02:19.627Z,99273.88
2022-09-15T18:04:54.153Z,99281.16
2022-09-15T18:07:28.212Z,99293.06
2022-09-15T18:10:03.880Z,99292.87
2022-09-15T18:12:41.795Z,99283.69
2022-09-15T18:15:21.178Z,99269.84
2022-09-15T18:17:57.196Z,99267.59
2022-09-15T18:20:34.164Z,99274.25
2022-09-15T18:23:11.415Z,99273.03
2022-09-15T18:25:47.534Z,99275.13
2022-09-15T18:28:22.972Z,99277.78
2022-09-15T18:30:57.592Z,99292.87
2022-09-15T18:33:31.950Z,99289.97
2022-09-15T18:36:08.265Z,99293.09
2022-09-15T18:38:42.444Z,99296.81
2022-09-15T18:41:17.343Z,99290.03
2022-09-15T18:43:52.799Z,99294.09
2022-09-15T18:46:27.289Z,99295.47
2022-09-15T18:49:02.876Z,99294.75
2022-09-15T18:51:51.303Z,99317.94
2022-09-15T18:54:26.160Z,99320.66
2022-09-15T18:57:00.841Z,99321.72
2022-09-15T18:59:36.640Z,99324.06
2022-09-15T19:02:14.448Z,99332.13
2022-09-15T19:04:49.407Z,99334.28
2022-09-15T19:07:28.201Z,99333.72
2022-09-15T19:10:02.638Z,99344.78
2022-09-15T19:12:39.494Z,99343.25
2022-09-15T19:15:15.324Z,99339.38
2022-09-15T19:17:49.683Z,99331.44
2022-09-15T19:20:24.137Z,99323.81
2022-09-15T19:22:58.584Z,99325.13
2022-09-15T19:25:32.739Z,99330.72
2022-09-15T19:28:07.172Z,99335.91
2022-09-15T19:30:42.902Z,99336.19
2022-09-15T19:33:17.697Z,99345.22
2022-09-15T19:36:04.904Z,99359.00
2022-09-15T19:38:46.848Z,99364.31
2022-09-15T19:41:21.039Z,99360.44
2022-09-15T19:43:55.855Z,99357.66
2022-09-15T19:46:31.636Z,99363.06
2022-09-15T19:49:06.572Z,99364.22
2022-09-15T19:51:40.960Z,99377.31
2022-09-15T19:54:15.383Z,99383.50
2022-09-15T19:56:49.504Z,99384.37
2022-09-15T19:59:57.722Z,99378.66
2022-09-15T20:02:32.823Z,99386.88
2022-09-15T20:08:02.143Z,99388.34
2022-09-15T20:10:39.777Z,99399.28
2022-09-15T20:13:14.379Z,99399.03
2022-09-15T20:16:09.129Z,99397.53
2022-09-15T20:18:43.293Z,99408.03
2022-09-15T20:21:32.564Z,99408.56
2022-09-15T20:24:07.343Z,99414.59
2022-09-15T20:26:41.971Z,99407.75
2022-09-15T20:29:16.034Z,99411.94
2022-09-15T20:31:51.880Z,99415.91
2022-09-15T20:34:25.877Z,99431.00
2022-09-15T20:37:00.342Z,99429.63
2022-09-15T20:39:35.434Z,99436.25
2022-09-15T20:42:09.833Z,99433.59
2022-09-15T20:44:43.813Z,99438.50
2022-09-15T20:47:19.474Z,99442.78
2022-09-15T20:49:54.061Z,99464.25
2022-09-15T20:52:35.882Z,99465.94
2022-09-15T20:55:12.249Z,99446.66
2022-09-15T20:57:46.717Z,99442.38
2022-09-15T21:00:21.319Z,99434.47
2022-09-15T21:02:57.103Z,99438.72
2022-09-15T21:05:31.173Z,99437.34
2022-09-15T21:08:05.565Z,99442.69
2022-09-15T21:10:40.237Z,99449.22
2022-09-15T21:13:14.544Z,99440.56
2022-09-15T21:15:53.723Z,99440.12
2022-09-15T21:18:33.945Z,99450.28
2022-09-15T21:21:10.126Z,99449.66
2022-09-15T21:23:45.817Z,99451.16
2022-09-15T21:26:21.837Z,99458.44
2022-09-15T21:28:57.650Z,99455.66
2022-09-15T21:31:33.644Z,99454.47
2022-09-15T21:34:09.394Z,99470.22
2022-09-15T21:36:43.601Z,99480.53
2022-09-15T21:39:18.006Z,99496.25
2022-09-15T21:41:52.118Z,99499.59
2022-09-15T21:44:26.669Z,99501.66
2022-09-15T21:47:00.750Z,99507.97
2022-09-15T21:49:36.729Z,99513.03
2022-09-15T21:52:10.805Z,99510.34
2022-09-15T21:54:45.116Z,99512.59
2022-09-15T21:57:19.229Z,99505.63
2022-09-15T21:59:54.803Z,99506.03
2022-09-15T22:02:28.882Z,99531.88
2022-09-15T22:05:04.756Z,99524.06
2022-09-15T22:07:40.400Z,99517.28
2022-09-15T22:10:14.907Z,99527.06
2022-09-15T22:12:48.953Z,99533.91
2022-09-15T22:15:23.995Z,99532.09
2022-09-15T22:17:58.167Z,99539.16
2022-09-15T22:20:33.945Z,99544.09
2022-09-15T22:23:08.019Z,99541.00
2022-09-15T22:25:42.440Z,99545.50
2022-09-15T22:28:16.478Z,99557.94
2022-09-15T22:30:50.850Z,99550.41
2022-09-15T22:33:24.976Z,99549.44
2022-09-15T22:36:00.925Z,99561.25
2022-09-15T22:38:34.969Z,99569.72
2022-09-15T22:41:12.152Z,99578.66
2022-09-15T22:43:48.690Z,99576.38
2022-09-15T22:46:23.020Z,99581.00
2022-09-15T22:48:57.102Z,99580.25
2022-09-15T22:51:32.801Z,99582.63
2022-09-15T22:54:07.001Z,99578.84
2022-09-15T22:56:41.351Z,99568.34
2022-09-15T22:59:15.534Z,99578.06
2022-09-15T23:01:50.011Z,99588.59
2022-09-15T23:04:24.095Z,99590.53
2022-09-15T23:06:59.862Z,99578.72
2022-09-15T23:09:34.348Z,99587.22
2022-09-15T23:12:10.026Z,99584.94
2022-09-15T23:14:44.070Z,99588.59
2022-09-15T23:17:18.393Z,99590.09
2022-09-15T23:19:52.846Z,99595.66
2022-09-15T23:22:28.621Z,99590.28
2022-09-15T23:25:02.653Z,99582.69
2022-09-15T23:27:37.136Z,99591.38
2022-09-15T23:30:12.810Z,99588.78
2022-09-15T23:32:47.239Z,99594.12
2022-09-15T23:35:21.505Z,99587.81
2022-09-15T23:37:57.200Z,99601.00
2022-09-15T23:40:33.185Z,99593.81
2022-09-15T23:43:07.478Z,99588.38
2022-09-15T23:45:42.916Z,99585.03
2022-09-15T23:48:17.398Z,99582.06
2022-09-15T23:50:51.460Z,99587.81
2022-09-15T23:53:27.218Z,99588.47
2022-09-15T23:56:01.256Z,99600.06
